sensor_id;sensor_type;location;lat;lon;timestamp;P1;durP1;ratioP1;P2;durP2;ratioP2
53925;SDS011;39836;52.754;6.866;2023-02-19T00:00:00;72.07;;;29.08;;
53925;SDS011;39836;52.754;6.866;2023-02-19T00:02:26;74.75;;;29.48;;
53925;SDS011;39836;52.754;6.866;2023-02-19T00:04:51;63.40;;;30.00;;
53925;SDS011;39836;52.754;6.866;2023-02-19T00:07:17;70.15;;;28.50;;
53925;SDS011;39836;52.754;6.866;2023-02-19T00:09:43;70.93;;;28.33;;
53925;SDS011;39836;52.754;6.866;2023-02-19T00:12:08;51.08;;;22.73;;
53925;SDS011;39836;52.754;6.866;2023-02-19T00:14:34;63.70;;;28.20;;
53925;SDS011;39836;52.754;6.866;2023-02-19T00:17:00;57.40;;;26.27;;
53925;SDS011;39836;52.754;6.866;2023-02-19T00:19:26;63.95;;;28.60;;
53925;SDS011;39836;52.754;6.866;2023-02-19T00:21:52;60.53;;;27.90;;
53925;SDS011;39836;52.754;6.866;2023-02-19T00:24:19;53.95;;;22.52;;
53925;SDS011;39836;52.754;6.866;2023-02-19T00:26:45;65.40;;;28.80;;
53925;SDS011;39836;52.754;6.866;2023-02-19T00:29:16;56.80;;;25.23;;
53925;SDS011;39836;52.754;6.866;2023-02-19T00:31:44;56.25;;;26.80;;
53925;SDS011;39836;52.754;6.866;2023-02-19T00:34:11;57.80;;;24.83;;
53925;SDS011;39836;52.754;6.866;2023-02-19T00:36:38;57.83;;;26.42;;
53925;SDS011;39836;52.754;6.866;2023-02-19T00:39:05;57.38;;;26.25;;
53925;SDS011;39836;52.754;6.866;2023-02-19T00:41:31;58.72;;;25.65;;
53925;SDS011;39836;52.754;6.866;2023-02-19T00:48:57;62.13;;;27.85;;
53925;SDS011;39836;52.754;6.866;2023-02-19T00:51:24;57.15;;;28.23;;
53925;SDS011;39836;52.754;6.866;2023-02-19T00:53:52;60.53;;;28.52;;
53925;SDS011;39836;52.754;6.866;2023-02-19T00:56:18;59.17;;;29.25;;
53925;SDS011;39836;52.754;6.866;2023-02-19T00:58:44;59.70;;;27.42;;
53925;SDS011;39836;52.754;6.866;2023-02-19T01:01:10;39.67;;;21.55;;
53925;SDS011;39836;52.754;6.866;2023-02-19T01:03:36;51.00;;;22.23;;
53925;SDS011;39836;52.754;6.866;2023-02-19T01:06:02;65.82;;;31.65;;
53925;SDS011;39836;52.754;6.866;2023-02-19T01:08:29;60.90;;;31.27;;
53925;SDS011;39836;52.754;6.866;2023-02-19T01:10:56;56.35;;;28.38;;
53925;SDS011;39836;52.754;6.866;2023-02-19T01:13:22;58.80;;;26.52;;
53925;SDS011;39836;52.754;6.866;2023-02-19T01:15:48;63.85;;;32.75;;
53925;SDS011;39836;52.754;6.866;2023-02-19T01:18:14;65.32;;;31.73;;
53925;SDS011;39836;52.754;6.866;2023-02-19T01:20:41;68.93;;;31.20;;
53925;SDS011;39836;52.754;6.866;2023-02-19T01:23:07;70.57;;;29.17;;
53925;SDS011;39836;52.754;6.866;2023-02-19T01:25:39;74.18;;;31.02;;
53925;SDS011;39836;52.754;6.866;2023-02-19T01:28:05;65.88;;;30.27;;
53925;SDS011;39836;52.754;6.866;2023-02-19T01:30:33;74.18;;;30.40;;
53925;SDS011;39836;52.754;6.866;2023-02-19T01:33:01;63.13;;;30.48;;
53925;SDS011;39836;52.754;6.866;2023-02-19T01:35:30;73.05;;;30.25;;
53925;SDS011;39836;52.754;6.866;2023-02-19T01:37:56;59.08;;;30.17;;
53925;SDS011;39836;52.754;6.866;2023-02-19T01:40:22;64.47;;;28.77;;
53925;SDS011;39836;52.754;6.866;2023-02-19T01:42:49;67.20;;;29.70;;
53925;SDS011;39836;52.754;6.866;2023-02-19T01:45:31;62.95;;;26.75;;
53925;SDS011;39836;52.754;6.866;2023-02-19T01:48:06;62.83;;;26.60;;
53925;SDS011;39836;52.754;6.866;2023-02-19T01:50:43;79.05;;;25.15;;
53925;SDS011;39836;52.754;6.866;2023-02-19T01:53:15;66.35;;;27.20;;
53925;SDS011;39836;52.754;6.866;2023-02-19T01:55:45;52.40;;;24.08;;
53925;SDS011;39836;52.754;6.866;2023-02-19T01:58:14;55.38;;;23.90;;
53925;SDS011;39836;52.754;6.866;2023-02-19T02:00:41;54.22;;;23.15;;
53925;SDS011;39836;52.754;6.866;2023-02-19T02:03:07;38.92;;;17.67;;
53925;SDS011;39836;52.754;6.866;2023-02-19T02:08:01;49.85;;;20.60;;
53925;SDS011;39836;52.754;6.866;2023-02-19T02:10:46;49.80;;;22.58;;
53925;SDS011;39836;52.754;6.866;2023-02-19T02:13:14;44.55;;;18.30;;
53925;SDS011;39836;52.754;6.866;2023-02-19T02:24:30;45.40;;;17.40;;
53925;SDS011;39836;52.754;6.866;2023-02-19T02:32:38;35.85;;;16.23;;
53925;SDS011;39836;52.754;6.866;2023-02-19T02:35:18;44.70;;;16.70;;
53925;SDS011;39836;52.754;6.866;2023-02-19T02:37:50;42.42;;;16.48;;
53925;SDS011;39836;52.754;6.866;2023-02-19T02:40:20;37.03;;;15.57;;
53925;SDS011;39836;52.754;6.866;2023-02-19T02:42:46;29.95;;;13.10;;
53925;SDS011;39836;52.754;6.866;2023-02-19T02:47:59;23.73;;;11.10;;
53925;SDS011;39836;52.754;6.866;2023-02-19T02:50:32;20.58;;;9.35;;
53925;SDS011;39836;52.754;6.866;2023-02-19T02:53:04;16.48;;;7.80;;
53925;SDS011;39836;52.754;6.866;2023-02-19T02:56:02;21.33;;;8.75;;
53925;SDS011;39836;52.754;6.866;2023-02-19T02:58:28;16.05;;;7.25;;
53925;SDS011;39836;52.754;6.866;2023-02-19T03:01:16;23.83;;;12.23;;
53925;SDS011;39836;52.754;6.866;2023-02-19T03:04:10;30.38;;;12.30;;
53925;SDS011;39836;52.754;6.866;2023-02-19T03:06:39;22.67;;;12.38;;
53925;SDS011;39836;52.754;6.866;2023-02-19T03:11:35;31.70;;;13.93;;
53925;SDS011;39836;52.754;6.866;2023-02-19T03:14:29;27.63;;;13.35;;
53925;SDS011;39836;52.754;6.866;2023-02-19T03:17:37;25.67;;;11.05;;
53925;SDS011;39836;52.754;6.866;2023-02-19T03:20:35;25.15;;;12.40;;
53925;SDS011;39836;52.754;6.866;2023-02-19T03:23:05;22.42;;;10.55;;
53925;SDS011;39836;52.754;6.866;2023-02-19T03:25:33;24.60;;;11.35;;
53925;SDS011;39836;52.754;6.866;2023-02-19T03:28:20;24.67;;;11.68;;
53925;SDS011;39836;52.754;6.866;2023-02-19T03:31:10;21.30;;;9.52;;
53925;SDS011;39836;52.754;6.866;2023-02-19T03:33:39;19.27;;;7.93;;
53925;SDS011;39836;52.754;6.866;2023-02-19T03:36:07;19.15;;;8.65;;
53925;SDS011;39836;52.754;6.866;2023-02-19T03:43:58;28.88;;;12.57;;
53925;SDS011;39836;52.754;6.866;2023-02-19T03:49:25;28.83;;;12.27;;
53925;SDS011;39836;52.754;6.866;2023-02-19T03:57:38;26.15;;;11.65;;
53925;SDS011;39836;52.754;6.866;2023-02-19T04:05:28;28.35;;;11.50;;
53925;SDS011;39836;52.754;6.866;2023-02-19T04:07:56;23.20;;;12.82;;
53925;SDS011;39836;52.754;6.866;2023-02-19T04:10:28;28.25;;;12.57;;
53925;SDS011;39836;52.754;6.866;2023-02-19T04:13:09;27.40;;;12.48;;
53925;SDS011;39836;52.754;6.866;2023-02-19T04:15:41;31.70;;;12.63;;
53925;SDS011;39836;52.754;6.866;2023-02-19T04:18:11;19.30;;;9.25;;
53925;SDS011;39836;52.754;6.866;2023-02-19T04:20:44;32.40;;;13.57;;
53925;SDS011;39836;52.754;6.866;2023-02-19T04:23:11;22.13;;;10.98;;
53925;SDS011;39836;52.754;6.866;2023-02-19T04:25:38;13.63;;;7.32;;
53925;SDS011;39836;52.754;6.866;2023-02-19T04:28:09;8.02;;;4.90;;
53925;SDS011;39836;52.754;6.866;2023-02-19T04:30:37;7.10;;;4.65;;
53925;SDS011;39836;52.754;6.866;2023-02-19T04:33:02;8.98;;;4.93;;
53925;SDS011;39836;52.754;6.866;2023-02-19T04:35:28;8.32;;;5.30;;
53925;SDS011;39836;52.754;6.866;2023-02-19T04:37:54;8.20;;;4.53;;
53925;SDS011;39836;52.754;6.866;2023-02-19T04:40:20;7.43;;;4.82;;
53925;SDS011;39836;52.754;6.866;2023-02-19T04:42:45;6.80;;;4.35;;
53925;SDS011;39836;52.754;6.866;2023-02-19T04:45:11;7.30;;;4.57;;
53925;SDS011;39836;52.754;6.866;2023-02-19T04:47:36;9.75;;;4.95;;
53925;SDS011;39836;52.754;6.866;2023-02-19T04:50:02;7.82;;;4.78;;
53925;SDS011;39836;52.754;6.866;2023-02-19T04:52:28;8.40;;;5.05;;
53925;SDS011;39836;52.754;6.866;2023-02-19T04:54:54;6.30;;;4.18;;
53925;SDS011;39836;52.754;6.866;2023-02-19T04:57:19;7.57;;;4.43;;
53925;SDS011;39836;52.754;6.866;2023-02-19T04:59:45;5.95;;;3.92;;
53925;SDS011;39836;52.754;6.866;2023-02-19T05:02:11;5.30;;;3.70;;
53925;SDS011;39836;52.754;6.866;2023-02-19T05:04:36;6.38;;;3.70;;
53925;SDS011;39836;52.754;6.866;2023-02-19T05:07:02;5.45;;;3.40;;
53925;SDS011;39836;52.754;6.866;2023-02-19T05:09:28;6.03;;;3.55;;
53925;SDS011;39836;52.754;6.866;2023-02-19T05:11:53;4.82;;;3.20;;
53925;SDS011;39836;52.754;6.866;2023-02-19T05:14:19;5.00;;;3.40;;
53925;SDS011;39836;52.754;6.866;2023-02-19T05:16:45;4.93;;;3.40;;
53925;SDS011;39836;52.754;6.866;2023-02-19T05:19:10;4.05;;;2.88;;
53925;SDS011;39836;52.754;6.866;2023-02-19T05:21:36;5.85;;;3.50;;
53925;SDS011;39836;52.754;6.866;2023-02-19T05:24:04;5.43;;;3.67;;
53925;SDS011;39836;52.754;6.866;2023-02-19T05:26:30;5.07;;;3.55;;
53925;SDS011;39836;52.754;6.866;2023-02-19T05:28:56;4.63;;;3.20;;
53925;SDS011;39836;52.754;6.866;2023-02-19T05:31:22;5.20;;;3.33;;
53925;SDS011;39836;52.754;6.866;2023-02-19T05:33:48;4.82;;;3.20;;
53925;SDS011;39836;52.754;6.866;2023-02-19T05:36:17;6.40;;;3.40;;
53925;SDS011;39836;52.754;6.866;2023-02-19T05:38:44;5.80;;;3.78;;
53925;SDS011;39836;52.754;6.866;2023-02-19T05:43:43;5.85;;;3.30;;
53925;SDS011;39836;52.754;6.866;2023-02-19T05:46:11;5.70;;;3.60;;
53925;SDS011;39836;52.754;6.866;2023-02-19T05:48:38;6.60;;;3.80;;
53925;SDS011;39836;52.754;6.866;2023-02-19T05:51:14;6.85;;;4.40;;
53925;SDS011;39836;52.754;6.866;2023-02-19T05:53:42;6.85;;;4.00;;
53925;SDS011;39836;52.754;6.866;2023-02-19T05:58:58;12.05;;;5.30;;
53925;SDS011;39836;52.754;6.866;2023-02-19T06:01:30;9.30;;;5.00;;
53925;SDS011;39836;52.754;6.866;2023-02-19T06:03:56;8.23;;;4.55;;
53925;SDS011;39836;52.754;6.866;2023-02-19T06:06:22;9.35;;;4.80;;
53925;SDS011;39836;52.754;6.866;2023-02-19T06:08:48;8.13;;;4.50;;
53925;SDS011;39836;52.754;6.866;2023-02-19T06:11:15;8.90;;;5.30;;
53925;SDS011;39836;52.754;6.866;2023-02-19T06:13:41;10.10;;;5.57;;
53925;SDS011;39836;52.754;6.866;2023-02-19T06:16:08;11.32;;;5.75;;
53925;SDS011;39836;52.754;6.866;2023-02-19T06:18:34;11.95;;;7.20;;
53925;SDS011;39836;52.754;6.866;2023-02-19T06:21:00;10.75;;;6.13;;
53925;SDS011;39836;52.754;6.866;2023-02-19T06:23:30;11.07;;;5.90;;
53925;SDS011;39836;52.754;6.866;2023-02-19T06:28:45;7.93;;;4.82;;
53925;SDS011;39836;52.754;6.866;2023-02-19T06:31:12;9.00;;;5.07;;
53925;SDS011;39836;52.754;6.866;2023-02-19T06:33:38;7.18;;;4.30;;
53925;SDS011;39836;52.754;6.866;2023-02-19T06:36:06;7.75;;;4.05;;
53925;SDS011;39836;52.754;6.866;2023-02-19T06:38:38;8.52;;;4.40;;
53925;SDS011;39836;52.754;6.866;2023-02-19T06:41:05;8.27;;;4.47;;
53925;SDS011;39836;52.754;6.866;2023-02-19T06:43:32;10.82;;;3.92;;
53925;SDS011;39836;52.754;6.866;2023-02-19T06:45:59;7.10;;;4.00;;
53925;SDS011;39836;52.754;6.866;2023-02-19T06:48:26;10.02;;;3.90;;
53925;SDS011;39836;52.754;6.866;2023-02-19T06:50:53;8.75;;;4.50;;
53925;SDS011;39836;52.754;6.866;2023-02-19T06:53:19;6.78;;;4.00;;
53925;SDS011;39836;52.754;6.866;2023-02-19T06:55:54;8.65;;;4.50;;
53925;SDS011;39836;52.754;6.866;2023-02-19T06:58:30;9.85;;;4.22;;
53925;SDS011;39836;52.754;6.866;2023-02-19T07:00:57;8.35;;;4.47;;
53925;SDS011;39836;52.754;6.866;2023-02-19T07:03:23;8.45;;;4.40;;
53925;SDS011;39836;52.754;6.866;2023-02-19T07:05:50;9.80;;;4.55;;
53925;SDS011;39836;52.754;6.866;2023-02-19T07:08:16;9.05;;;4.70;;
53925;SDS011;39836;52.754;6.866;2023-02-19T07:10:43;9.20;;;4.65;;
53925;SDS011;39836;52.754;6.866;2023-02-19T07:13:09;10.40;;;4.97;;
53925;SDS011;39836;52.754;6.866;2023-02-19T07:15:35;9.23;;;4.78;;
53925;SDS011;39836;52.754;6.866;2023-02-19T07:18:00;11.27;;;5.03;;
53925;SDS011;39836;52.754;6.866;2023-02-19T07:20:26;10.15;;;5.18;;
53925;SDS011;39836;52.754;6.866;2023-02-19T07:22:52;12.07;;;5.00;;
53925;SDS011;39836;52.754;6.866;2023-02-19T07:25:17;9.07;;;5.75;;
53925;SDS011;39836;52.754;6.866;2023-02-19T07:27:43;8.85;;;5.18;;
53925;SDS011;39836;52.754;6.866;2023-02-19T07:30:09;11.32;;;5.32;;
53925;SDS011;39836;52.754;6.866;2023-02-19T07:32:35;9.73;;;5.72;;
53925;SDS011;39836;52.754;6.866;2023-02-19T07:35:04;10.75;;;6.10;;
53925;SDS011;39836;52.754;6.866;2023-02-19T07:37:30;13.40;;;5.55;;
53925;SDS011;39836;52.754;6.866;2023-02-19T07:39:56;12.10;;;5.97;;
53925;SDS011;39836;52.754;6.866;2023-02-19T07:42:21;9.63;;;6.07;;
53925;SDS011;39836;52.754;6.866;2023-02-19T07:44:47;14.60;;;7.38;;
53925;SDS011;39836;52.754;6.866;2023-02-19T07:47:13;14.32;;;7.00;;
53925;SDS011;39836;52.754;6.866;2023-02-19T07:49:38;15.65;;;7.90;;
53925;SDS011;39836;52.754;6.866;2023-02-19T07:52:04;11.85;;;6.68;;
53925;SDS011;39836;52.754;6.866;2023-02-19T07:54:30;16.88;;;6.85;;
53925;SDS011;39836;52.754;6.866;2023-02-19T07:56:55;15.00;;;6.15;;
53925;SDS011;39836;52.754;6.866;2023-02-19T07:59:21;11.30;;;5.35;;
53925;SDS011;39836;52.754;6.866;2023-02-19T08:01:47;10.48;;;5.30;;
53925;SDS011;39836;52.754;6.866;2023-02-19T08:04:31;13.45;;;6.05;;
53925;SDS011;39836;52.754;6.866;2023-02-19T08:06:57;12.65;;;5.60;;
53925;SDS011;39836;52.754;6.866;2023-02-19T08:09:23;12.82;;;7.15;;
53925;SDS011;39836;52.754;6.866;2023-02-19T08:11:48;12.90;;;5.65;;
53925;SDS011;39836;52.754;6.866;2023-02-19T08:14:33;13.80;;;5.72;;
53925;SDS011;39836;52.754;6.866;2023-02-19T08:16:58;14.82;;;6.00;;
53925;SDS011;39836;52.754;6.866;2023-02-19T08:19:24;12.07;;;5.70;;
53925;SDS011;39836;52.754;6.866;2023-02-19T08:21:50;12.50;;;6.00;;
53925;SDS011;39836;52.754;6.866;2023-02-19T08:24:15;10.57;;;5.40;;
53925;SDS011;39836;52.754;6.866;2023-02-19T08:26:41;11.60;;;5.82;;
53925;SDS011;39836;52.754;6.866;2023-02-19T08:29:07;10.90;;;5.63;;
53925;SDS011;39836;52.754;6.866;2023-02-19T08:31:33;11.20;;;5.85;;
53925;SDS011;39836;52.754;6.866;2023-02-19T08:33:59;11.85;;;5.70;;
53925;SDS011;39836;52.754;6.866;2023-02-19T08:36:24;11.88;;;5.97;;
53925;SDS011;39836;52.754;6.866;2023-02-19T08:38:50;10.07;;;5.20;;
53925;SDS011;39836;52.754;6.866;2023-02-19T08:41:16;12.23;;;5.38;;
53925;SDS011;39836;52.754;6.866;2023-02-19T08:43:42;10.85;;;5.57;;
53925;SDS011;39836;52.754;6.866;2023-02-19T08:46:08;7.75;;;4.68;;
53925;SDS011;39836;52.754;6.866;2023-02-19T08:48:35;10.05;;;4.65;;
53925;SDS011;39836;52.754;6.866;2023-02-19T08:51:02;6.95;;;4.43;;
53925;SDS011;39836;52.754;6.866;2023-02-19T08:53:32;9.70;;;5.05;;
53925;SDS011;39836;52.754;6.866;2023-02-19T08:56:03;7.80;;;4.35;;
53925;SDS011;39836;52.754;6.866;2023-02-19T08:58:39;7.15;;;4.38;;
53925;SDS011;39836;52.754;6.866;2023-02-19T09:01:12;8.77;;;4.22;;
53925;SDS011;39836;52.754;6.866;2023-02-19T09:06:09;6.63;;;4.47;;
53925;SDS011;39836;52.754;6.866;2023-02-19T09:08:41;6.75;;;4.20;;
53925;SDS011;39836;52.754;6.866;2023-02-19T09:11:07;6.93;;;4.07;;
53925;SDS011;39836;52.754;6.866;2023-02-19T09:13:32;7.65;;;3.70;;
53925;SDS011;39836;52.754;6.866;2023-02-19T09:15:58;7.10;;;4.07;;
53925;SDS011;39836;52.754;6.866;2023-02-19T09:18:24;6.70;;;3.80;;
53925;SDS011;39836;52.754;6.866;2023-02-19T09:20:51;8.15;;;4.15;;
53925;SDS011;39836;52.754;6.866;2023-02-19T09:23:16;6.63;;;3.90;;
53925;SDS011;39836;52.754;6.866;2023-02-19T09:25:42;6.95;;;4.10;;
53925;SDS011;39836;52.754;6.866;2023-02-19T09:28:08;6.72;;;3.65;;
53925;SDS011;39836;52.754;6.866;2023-02-19T09:30:33;6.68;;;3.63;;
53925;SDS011;39836;52.754;6.866;2023-02-19T09:32:59;7.72;;;3.67;;
53925;SDS011;39836;52.754;6.866;2023-02-19T09:35:25;6.90;;;3.88;;
53925;SDS011;39836;52.754;6.866;2023-02-19T09:37:51;6.68;;;3.83;;
53925;SDS011;39836;52.754;6.866;2023-02-19T09:40:16;5.13;;;3.58;;
53925;SDS011;39836;52.754;6.866;2023-02-19T09:42:45;5.07;;;3.67;;
53925;SDS011;39836;52.754;6.866;2023-02-19T09:45:18;5.38;;;3.60;;
53925;SDS011;39836;52.754;6.866;2023-02-19T09:47:47;7.93;;;4.38;;
53925;SDS011;39836;52.754;6.866;2023-02-19T09:50:17;6.93;;;3.30;;
53925;SDS011;39836;52.754;6.866;2023-02-19T09:55:28;5.45;;;3.30;;
53925;SDS011;39836;52.754;6.866;2023-02-19T09:57:57;6.22;;;3.33;;
53925;SDS011;39836;52.754;6.866;2023-02-19T10:00:25;4.95;;;3.10;;
53925;SDS011;39836;52.754;6.866;2023-02-19T10:02:53;5.07;;;2.90;;
53925;SDS011;39836;52.754;6.866;2023-02-19T10:05:34;6.55;;;3.30;;
53925;SDS011;39836;52.754;6.866;2023-02-19T10:07:59;5.20;;;2.70;;
53925;SDS011;39836;52.754;6.866;2023-02-19T10:10:31;4.45;;;2.75;;
53925;SDS011;39836;52.754;6.866;2023-02-19T10:13:04;4.88;;;2.40;;
53925;SDS011;39836;52.754;6.866;2023-02-19T10:15:38;6.18;;;3.30;;
53925;SDS011;39836;52.754;6.866;2023-02-19T10:18:26;4.07;;;2.83;;
53925;SDS011;39836;52.754;6.866;2023-02-19T10:20:54;5.38;;;2.85;;
53925;SDS011;39836;52.754;6.866;2023-02-19T10:23:24;4.85;;;2.72;;
53925;SDS011;39836;52.754;6.866;2023-02-19T10:25:59;3.35;;;2.58;;
53925;SDS011;39836;52.754;6.866;2023-02-19T10:28:29;3.63;;;2.50;;
53925;SDS011;39836;52.754;6.866;2023-02-19T10:30:58;4.97;;;2.80;;
53925;SDS011;39836;52.754;6.866;2023-02-19T10:33:25;3.83;;;2.92;;
53925;SDS011;39836;52.754;6.866;2023-02-19T10:35:53;4.35;;;2.63;;
53925;SDS011;39836;52.754;6.866;2023-02-19T10:38:38;4.57;;;2.65;;
53925;SDS011;39836;52.754;6.866;2023-02-19T10:41:16;4.78;;;2.58;;
53925;SDS011;39836;52.754;6.866;2023-02-19T10:46:25;4.50;;;2.50;;
53925;SDS011;39836;52.754;6.866;2023-02-19T10:48:54;4.85;;;2.67;;
53925;SDS011;39836;52.754;6.866;2023-02-19T10:51:40;5.30;;;2.03;;
53925;SDS011;39836;52.754;6.866;2023-02-19T10:56:40;3.90;;;2.25;;
53925;SDS011;39836;52.754;6.866;2023-02-19T10:59:14;5.13;;;2.80;;
53925;SDS011;39836;52.754;6.866;2023-02-19T11:01:52;4.57;;;2.60;;
53925;SDS011;39836;52.754;6.866;2023-02-19T11:04:27;4.65;;;2.60;;
53925;SDS011;39836;52.754;6.866;2023-02-19T11:06:58;5.63;;;3.08;;
53925;SDS011;39836;52.754;6.866;2023-02-19T11:09:44;5.32;;;2.53;;
53925;SDS011;39836;52.754;6.866;2023-02-19T11:12:13;4.97;;;2.63;;
53925;SDS011;39836;52.754;6.866;2023-02-19T11:14:52;4.32;;;2.28;;
53925;SDS011;39836;52.754;6.866;2023-02-19T11:17:25;4.30;;;2.20;;
53925;SDS011;39836;52.754;6.866;2023-02-19T11:19:53;4.30;;;2.00;;
53925;SDS011;39836;52.754;6.866;2023-02-19T11:22:29;3.40;;;1.90;;
53925;SDS011;39836;52.754;6.866;2023-02-19T11:25:03;2.40;;;1.85;;
53925;SDS011;39836;52.754;6.866;2023-02-19T11:30:52;5.47;;;1.70;;
53925;SDS011;39836;52.754;6.866;2023-02-19T11:33:19;4.30;;;1.80;;
53925;SDS011;39836;52.754;6.866;2023-02-19T11:35:58;3.17;;;2.00;;
53925;SDS011;39836;52.754;6.866;2023-02-19T11:38:44;2.95;;;2.00;;
53925;SDS011;39836;52.754;6.866;2023-02-19T11:43:52;3.38;;;1.70;;
53925;SDS011;39836;52.754;6.866;2023-02-19T11:46:39;3.00;;;1.65;;
53925;SDS011;39836;52.754;6.866;2023-02-19T11:49:35;5.00;;;1.65;;
53925;SDS011;39836;52.754;6.866;2023-02-19T12:12:21;2.47;;;1.58;;
53925;SDS011;39836;52.754;6.866;2023-02-19T12:25:51;2.20;;;1.13;;
53925;SDS011;39836;52.754;6.866;2023-02-19T12:28:46;4.55;;;1.35;;
53925;SDS011;39836;52.754;6.866;2023-02-19T12:34:32;1.92;;;1.45;;
53925;SDS011;39836;52.754;6.866;2023-02-19T12:37:19;4.15;;;1.60;;
53925;SDS011;39836;52.754;6.866;2023-02-19T12:42:52;4.32;;;2.08;;
53925;SDS011;39836;52.754;6.866;2023-02-19T12:53:43;4.50;;;1.60;;
53925;SDS011;39836;52.754;6.866;2023-02-19T12:56:16;2.97;;;1.40;;
53925;SDS011;39836;52.754;6.866;2023-02-19T12:58:53;2.78;;;1.30;;
53925;SDS011;39836;52.754;6.866;2023-02-19T13:01:27;2.88;;;1.40;;
53925;SDS011;39836;52.754;6.866;2023-02-19T13:04:13;5.93;;;2.53;;
53925;SDS011;39836;52.754;6.866;2023-02-19T13:06:56;2.63;;;2.05;;
53925;SDS011;39836;52.754;6.866;2023-02-19T13:09:47;2.58;;;1.40;;
53925;SDS011;39836;52.754;6.866;2023-02-19T13:12:28;2.63;;;1.45;;
53925;SDS011;39836;52.754;6.866;2023-02-19T13:15:01;3.38;;;1.70;;
53925;SDS011;39836;52.754;6.866;2023-02-19T13:17:45;3.33;;;1.60;;
53925;SDS011;39836;52.754;6.866;2023-02-19T13:20:22;2.00;;;1.73;;
53925;SDS011;39836;52.754;6.866;2023-02-19T13:28:39;4.78;;;1.50;;
53925;SDS011;39836;52.754;6.866;2023-02-19T13:31:26;4.03;;;1.70;;
53925;SDS011;39836;52.754;6.866;2023-02-19T13:36:58;3.25;;;1.50;;
53925;SDS011;39836;52.754;6.866;2023-02-19T13:39:24;2.53;;;1.50;;
53925;SDS011;39836;52.754;6.866;2023-02-19T13:41:51;3.33;;;1.50;;
53925;SDS011;39836;52.754;6.866;2023-02-19T13:44:19;2.78;;;1.50;;
53925;SDS011;39836;52.754;6.866;2023-02-19T13:46:56;3.50;;;1.60;;
53925;SDS011;39836;52.754;6.866;2023-02-19T13:51:58;4.38;;;2.25;;
53925;SDS011;39836;52.754;6.866;2023-02-19T13:59:46;3.42;;;1.83;;
53925;SDS011;39836;52.754;6.866;2023-02-19T14:04:45;3.72;;;2.25;;
53925;SDS011;39836;52.754;6.866;2023-02-19T14:09:51;3.03;;;2.00;;
53925;SDS011;39836;52.754;6.866;2023-02-19T14:12:18;2.63;;;1.77;;
53925;SDS011;39836;52.754;6.866;2023-02-19T14:14:50;4.55;;;2.40;;
53925;SDS011;39836;52.754;6.866;2023-02-19T14:30:23;4.40;;;2.00;;
53925;SDS011;39836;52.754;6.866;2023-02-19T14:32:49;4.65;;;2.03;;
53925;SDS011;39836;52.754;6.866;2023-02-19T14:35:26;3.78;;;2.30;;
53925;SDS011;39836;52.754;6.866;2023-02-19T14:38:01;4.88;;;2.47;;
53925;SDS011;39836;52.754;6.866;2023-02-19T14:40:37;4.63;;;2.22;;
53925;SDS011;39836;52.754;6.866;2023-02-19T14:43:05;2.15;;;1.90;;
53925;SDS011;39836;52.754;6.866;2023-02-19T14:45:36;2.28;;;2.00;;
53925;SDS011;39836;52.754;6.866;2023-02-19T14:48:26;4.13;;;2.08;;
53925;SDS011;39836;52.754;6.866;2023-02-19T14:51:05;2.72;;;1.70;;
53925;SDS011;39836;52.754;6.866;2023-02-19T14:53:36;4.30;;;2.17;;
53925;SDS011;39836;52.754;6.866;2023-02-19T14:56:04;1.88;;;1.70;;
53925;SDS011;39836;52.754;6.866;2023-02-19T14:58:40;2.88;;;1.77;;
53925;SDS011;39836;52.754;6.866;2023-02-19T15:01:06;8.05;;;3.05;;
53925;SDS011;39836;52.754;6.866;2023-02-19T15:03:52;2.35;;;1.70;;
53925;SDS011;39836;52.754;6.866;2023-02-19T15:06:18;3.72;;;2.30;;
53925;SDS011;39836;52.754;6.866;2023-02-19T15:08:48;2.33;;;1.60;;
53925;SDS011;39836;52.754;6.866;2023-02-19T15:11:18;2.78;;;1.70;;
53925;SDS011;39836;52.754;6.866;2023-02-19T15:13:47;4.10;;;2.05;;
53925;SDS011;39836;52.754;6.866;2023-02-19T15:16:18;3.97;;;1.90;;
53925;SDS011;39836;52.754;6.866;2023-02-19T15:18:47;6.40;;;1.60;;
53925;SDS011;39836;52.754;6.866;2023-02-19T15:21:24;3.35;;;1.80;;
53925;SDS011;39836;52.754;6.866;2023-02-19T15:24:01;3.03;;;1.73;;
53925;SDS011;39836;52.754;6.866;2023-02-19T15:26:33;2.33;;;1.67;;
53925;SDS011;39836;52.754;6.866;2023-02-19T15:29:08;2.55;;;1.92;;
53925;SDS011;39836;52.754;6.866;2023-02-19T15:31:46;3.42;;;1.77;;
53925;SDS011;39836;52.754;6.866;2023-02-19T15:34:21;2.47;;;2.00;;
53925;SDS011;39836;52.754;6.866;2023-02-19T15:36:54;2.85;;;1.80;;
53925;SDS011;39836;52.754;6.866;2023-02-19T15:39:24;2.70;;;1.80;;
53925;SDS011;39836;52.754;6.866;2023-02-19T15:41:58;3.53;;;1.85;;
53925;SDS011;39836;52.754;6.866;2023-02-19T15:44:28;3.47;;;2.00;;
53925;SDS011;39836;52.754;6.866;2023-02-19T15:47:15;3.28;;;1.83;;
53925;SDS011;39836;52.754;6.866;2023-02-19T15:49:59;3.15;;;1.85;;
53925;SDS011;39836;52.754;6.866;2023-02-19T15:52:34;3.58;;;2.00;;
53925;SDS011;39836;52.754;6.866;2023-02-19T15:57:43;2.75;;;1.70;;
53925;SDS011;39836;52.754;6.866;2023-02-19T16:00:15;5.40;;;1.80;;
53925;SDS011;39836;52.754;6.866;2023-02-19T16:02:45;4.10;;;2.00;;
53925;SDS011;39836;52.754;6.866;2023-02-19T16:05:13;3.63;;;1.80;;
53925;SDS011;39836;52.754;6.866;2023-02-19T16:07:46;3.60;;;2.00;;
53925;SDS011;39836;52.754;6.866;2023-02-19T16:10:52;4.45;;;1.70;;
53925;SDS011;39836;52.754;6.866;2023-02-19T16:13:27;4.82;;;1.90;;
53925;SDS011;39836;52.754;6.866;2023-02-19T16:15:55;6.78;;;2.15;;
53925;SDS011;39836;52.754;6.866;2023-02-19T16:18:41;4.95;;;1.73;;
53925;SDS011;39836;52.754;6.866;2023-02-19T16:21:09;4.00;;;1.88;;
53925;SDS011;39836;52.754;6.866;2023-02-19T16:23:39;3.95;;;1.83;;
53925;SDS011;39836;52.754;6.866;2023-02-19T16:26:10;3.15;;;2.17;;
53925;SDS011;39836;52.754;6.866;2023-02-19T16:28:36;6.00;;;2.10;;
53925;SDS011;39836;52.754;6.866;2023-02-19T16:31:06;4.88;;;2.05;;
53925;SDS011;39836;52.754;6.866;2023-02-19T16:36:23;7.65;;;2.08;;
53925;SDS011;39836;52.754;6.866;2023-02-19T16:39:11;4.10;;;2.00;;
53925;SDS011;39836;52.754;6.866;2023-02-19T16:46:53;4.32;;;2.10;;
53925;SDS011;39836;52.754;6.866;2023-02-19T16:49:22;4.28;;;2.13;;
53925;SDS011;39836;52.754;6.866;2023-02-19T16:51:48;4.40;;;2.40;;
53925;SDS011;39836;52.754;6.866;2023-02-19T16:54:15;4.82;;;2.40;;
53925;SDS011;39836;52.754;6.866;2023-02-19T16:56:40;4.22;;;2.30;;
53925;SDS011;39836;52.754;6.866;2023-02-19T16:59:06;4.40;;;2.60;;
53925;SDS011;39836;52.754;6.866;2023-02-19T17:01:32;3.63;;;2.38;;
53925;SDS011;39836;52.754;6.866;2023-02-19T17:04:01;4.15;;;2.40;;
53925;SDS011;39836;52.754;6.866;2023-02-19T17:06:29;6.63;;;2.60;;
53925;SDS011;39836;52.754;6.866;2023-02-19T17:08:56;4.00;;;2.53;;
53925;SDS011;39836;52.754;6.866;2023-02-19T17:11:22;6.97;;;2.60;;
53925;SDS011;39836;52.754;6.866;2023-02-19T17:13:48;5.60;;;2.45;;
53925;SDS011;39836;52.754;6.866;2023-02-19T17:16:20;4.97;;;2.90;;
53925;SDS011;39836;52.754;6.866;2023-02-19T17:18:49;6.30;;;3.25;;
53925;SDS011;39836;52.754;6.866;2023-02-19T17:21:22;12.48;;;3.92;;
53925;SDS011;39836;52.754;6.866;2023-02-19T17:23:50;4.80;;;3.17;;
53925;SDS011;39836;52.754;6.866;2023-02-19T17:26:20;6.35;;;2.50;;
53925;SDS011;39836;52.754;6.866;2023-02-19T17:28:48;5.65;;;2.33;;
53925;SDS011;39836;52.754;6.866;2023-02-19T17:31:14;3.78;;;2.80;;
53925;SDS011;39836;52.754;6.866;2023-02-19T17:33:40;5.82;;;2.90;;
53925;SDS011;39836;52.754;6.866;2023-02-19T17:36:06;7.80;;;3.38;;
53925;SDS011;39836;52.754;6.866;2023-02-19T17:38:40;4.25;;;2.90;;
53925;SDS011;39836;52.754;6.866;2023-02-19T17:41:06;6.50;;;3.10;;